Airport Name : Mudgee

Other Name : Mudgee

ICAO : YMDG

IATA : DGE

FAA :

Latitude : -32.5625

Longitude : 149.611111

Country : Australia

Local Date and Time : 05 Dec 2020 01:22

 

TAF (Terminal Aerodrome Forecast)

 

METAR (METeorological Aerodrome Report)

YMDG 041400Z AUTO 08002KT 9999 // NCD 12/05 Q1013

YMDG 041300Z AUTO 07001KT 9999 // NCD 14/05 Q1013

YMDG 041253Z AUTO 05003KT 9999 // NCD 14/05 Q1013

YMDG 041200Z AUTO 00000KT 9999 // NCD 16/05 Q1013

YMDG 041100Z AUTO 04002KT 9999 // NCD 17/03 Q1013

To Charter a Jet Click here.